• Join FlightAware (Why Join?)
  • Login
  • US Flag 
07:18AM EDT


 

Airport Tracker/Info


-or-


 

Live Flight TrackerFlight Track Log ✈ UAL695 ✈ 06-May-2013 ✈ KLGA - KORD

Flight Track Log - Related Links

Times and Time Zones

All times are in EDT time to prevent confusion due to time zone crossing. See the UAL695 flight status page for this flight to view local times or setup timezone preferences in your user account.

Time Position Orientation Groundspeed Altitude Reporting Facility
EDT Latitude Longitude Course Direction KTS MPH feet Rate Location/Type
08:49PM 40.7333 -73.8333 294° West 187 215 3,100  Level New York TRACON
08:50PM 40.7667 -73.7667 57° Northeast 250 288 6,000 1,980 Climbing New York TRACON
08:51PM 40.9840 -74.3349 299° West  Level FlightAware Approximate
08:51PM 40.8333 -73.7833 349° North 280 322 7,100  Level New York TRACON
08:52PM 41.0351 -74.4574 299° West  Level FlightAware Approximate
08:52PM 40.8667 -73.9000 291° West 288 331 7,100  Level New York TRACON
08:53PM 41.0819 -74.5805 304° West  Level FlightAware Approximate
08:54PM 41.1371 -74.6947 294° West  Level FlightAware Approximate
08:54PM 40.9578 -74.0544 308° West 314 361 10,900  Level New York Center
08:56PM 41.0472 -74.3367 293° West 403 464 15,900 1,980 Climbing New York Center
08:57PM 41.0825 -74.4789 288° West 423 487 17,000 1,560 Climbing New York Center
08:58PM 41.1156 -74.6158 288° West 428 493 19,000 1,980 Climbing New York Center
09:00PM 41.1956 -74.8245 304° West  Level FlightAware Approximate
09:01PM 41.2903 -75.0508 304° West 452 520 25,000  Level New York Center
09:03PM 41.4186 -75.3522 300° West 468 539 28,100 1,680 Climbing New York Center
09:05PM 41.4963 -75.5557 294° West  Level FlightAware Approximate
09:06PM 41.5725 -75.8175 294° West 462 532 33,500  Level New York Center
09:07PM 41.6178 -75.9764 291° West 457 526 34,000 420 Climbing New York Center
09:12PM 41.8386 -76.7783 291° West 462 532 36,000 300 Climbing Cleveland Center
09:13PM 41.8833 -76.9375 291° West 455 524 36,000  Level Cleveland Center
09:14PM 41.9211 -77.0806 290° West 455 524 36,000  Level Cleveland Center
09:15PM 41.9636 -77.2403 290° West 460 529 36,000  Level Cleveland Center
09:16PM 42.0097 -77.4028 291° West 460 529 36,000  Level Cleveland Center
09:17PM 42.0517 -77.5631 289° West 460 529 36,000  Level Cleveland Center
09:18PM 42.0956 -77.7261 290° West 460 529 36,000  Level Cleveland Center
09:19PM 42.1389 -77.8892 290° West 465 535 36,000  Level Cleveland Center
09:20PM 42.1803 -78.0528 289° West 459 528 36,000  Level Cleveland Center
09:21PM 42.2233 -78.2194 289° West 464 534 36,000  Level Cleveland Center
09:22PM 42.2661 -78.3778 290° West 464 534 36,000  Level Cleveland Center
09:23PM 42.3089 -78.5419 289° West 464 534 36,000  Level Cleveland Center
09:24PM 42.3492 -78.7092 288° West 464 534 36,000  Level Cleveland Center
09:25PM 42.3933 -78.8739 290° West 464 534 36,000  Level Cleveland Center
09:26PM 42.4311 -79.0389 287° West 464 534 36,000  Level Cleveland Center
09:27PM 42.4750 -79.2039 290° West 464 534 36,000  Level Cleveland Center
09:29PM 42.5036 -79.5467 277° West 459 528 36,000  Level Cleveland Center
09:30PM 42.5133 -79.7186 274° West 465 535 36,000  Level Cleveland Center
09:31PM 42.5250 -79.8958 275° West 465 535 36,000  Level Cleveland Center
09:32PM 42.5300 -80.0872 272° West 465 535 36,000  Level Cleveland Center
09:33PM 42.5347 -80.2478 272° West 465 535 36,000  Level Cleveland Center
09:35PM 42.5497 -80.6000 273° West 471 542 36,000  Level Cleveland Center
09:37PM 42.5534 -80.8464 272° West  Level FlightAware Approximate
09:38PM 42.5694 -81.1244 272° West 471 542 36,000  Level Cleveland Center
09:39PM 42.5747 -81.3022 272° West 476 548 36,000  Level Cleveland Center
09:40PM 42.5881 -81.4772 276° West 476 548 36,000  Level Cleveland Center
09:41PM 42.6197 -81.6553 284° West 476 548 36,000  Level Cleveland Center
09:42PM 42.6514 -81.8422 283° West 471 542 36,000  Level Cleveland Center
09:43PM 42.6806 -82.0178 283° West 471 542 36,000  Level Cleveland Center
09:44PM 42.7094 -82.1881 283° West 471 542 36,000  Level Cleveland Center
09:45PM 42.7403 -82.3614 284° West 471 542 36,000  Level Cleveland Center
09:46PM 42.7686 -82.5375 282° West 471 542 36,000  Level Cleveland Center
09:47PM 42.7989 -82.7111 283° West 471 542 36,000  Level Cleveland Center
09:49PM 42.8547 -83.0586 282° West 471 542 36,000  Level Cleveland Center
09:50PM 42.8839 -83.2383 283° West 471 542 36,000 -300 Level Cleveland Center
09:51PM 42.9047 -83.4119 279° West 471 542 35,500 -840 Descending Cleveland Center
09:53PM 42.8994 -83.7747 269° West 471 542 33,600 -1,020 Descending Cleveland Center
09:54PM 42.8944 -83.9558 268° West 477 549 32,600 -420 Descending Cleveland Center
09:56PM 42.9117 -84.2077 260° West  Level FlightAware Approximate
09:57PM 42.8844 -84.5000 260° West 483 556 32,000  Level Chicago Center
09:58PM 42.8739 -84.6822 266° West 483 556 32,000  Level Chicago Center
09:59PM 42.8553 -84.8608 262° West 478 550 32,000  Level Chicago Center
10:00PM 42.8353 -85.0425 262° West 484 557 32,000 -1,560 Level Chicago Center
10:01PM 42.8128 -85.2592 262° West 482 555 28,900 -2,880 Descending Chicago Center
10:02PM 42.7933 -85.4322 261° West 467 537 26,200 -2,040 Descending Chicago Center
10:03PM 42.7675 -85.6008 258° West 456 525 24,800 -1,320 Descending Chicago Center
10:04PM 42.7372 -85.7683 256° West 453 521 23,600 -1,380 Descending Chicago Center
10:05PM 42.7058 -85.9417 256° West 464 534 22,000 -1,560 Descending Chicago Center
10:06PM 42.6753 -86.1111 256° West 460 529 20,500 -1,200 Descending Chicago Center
10:08PM 42.6142 -86.4347 256° West 438 504 18,500 -1,140 Descending Chicago Center
10:09PM 42.5847 -86.5911 256° West 430 495 17,100 -1,620 Descending Chicago Center
10:10PM 42.5553 -86.7450 255° West 423 487 15,300 -1,740 Descending Chicago Center
10:11PM 42.5169 -86.8889 250° West 410 472 13,600 -1,740 Descending Chicago Center
10:13PM 42.4557 -87.0791 250° West  Level FlightAware Approximate
10:13PM 42.4333 -87.1833 250° West 382 440 10,100  Level Chicago TRACON
10:14PM 42.4000 -87.3167 251° West 356 410 10,000 -60 Descending Chicago TRACON
10:15PM 42.3667 -87.4333 249° West 355 409 10,000  Level Chicago TRACON
10:16PM 42.3217 -87.5542 243° Southwest 356 410 10,000  Level Chicago Center
10:17PM 42.2442 -87.6347 218° Southwest 353 406 10,000  Level Chicago Center
10:18PM 42.1661 -87.7147 217° Southwest 355 409 10,000 -600 Level Chicago Center
10:19PM 42.1000 -87.7833 218° Southwest 296 341 8,900 -1,500 Descending Chicago TRACON
10:20PM 42.0833 -87.8833 257° West 293 337 7,300 -960 Descending Chicago TRACON
10:21PM 42.1000 -88.0000 281° West 277 319 7,000 -1,020 Descending Chicago TRACON
10:22PM 42.0833 -88.1000 257° West 260 299 5,300 -1,740 Descending Chicago TRACON
10:23PM 42.0500 -88.1667 236° Southwest 252 290 3,400 -1,260 Descending Chicago TRACON
10:24PM 42.0000 -88.1333 154° Southeast 214 246 3,000 -360 Descending Chicago TRACON
10:24PM 41.9878 -88.1306 170° South 217 250 3,000 -240 Level Chicago Center
10:25PM 41.9667 -88.0833 121° Southeast 190 219 2,800 -360 Descending Chicago TRACON